sensor_id;sensor_type;location;lat;lon;timestamp;P1;P2;P0
72918;PMS7003;61063;55.700;26.994;2023-01-15T00:01:55;10.3;8.7;6.3
72918;PMS7003;61063;55.700;26.994;2023-01-15T00:06:53;10.8;8.5;6.3
72918;PMS7003;61063;55.700;26.994;2023-01-15T00:11:21;9.4;7.8;5.8
72918;PMS7003;61063;55.700;26.994;2023-01-15T00:16:55;10.8;8.9;6.5
72918;PMS7003;61063;55.700;26.994;2023-01-15T00:21:35;12.1;9.7;6.9
72918;PMS7003;61063;55.700;26.994;2023-01-15T00:26:55;10.9;9;6.4
72918;PMS7003;61063;55.700;26.994;2023-01-15T00:31:13;11.5;9.2;6.9
72918;PMS7003;61063;55.700;26.994;2023-01-15T00:36:23;11.4;9.7;7.2
72918;PMS7003;61063;55.700;26.994;2023-01-15T00:41:21;12.9;9.8;7
72918;PMS7003;61063;55.700;26.994;2023-01-15T00:46:11;10;8.3;6.1
72918;PMS7003;61063;55.700;26.994;2023-01-15T00:51:43;12.3;10.3;7.7
72918;PMS7003;61063;55.700;26.994;2023-01-15T00:56:21;11.3;8.8;6.4
72918;PMS7003;61063;55.700;26.994;2023-01-15T01:01:29;13.1;10.5;7.7
72918;PMS7003;61063;55.700;26.994;2023-01-15T01:06:19;12.1;8.5;6.3
72918;PMS7003;61063;55.700;26.994;2023-01-15T01:11:57;12.3;10.7;8
72918;PMS7003;61063;55.700;26.994;2023-01-15T01:16:45;10.6;8.9;5.8
72918;PMS7003;61063;55.700;26.994;2023-01-15T01:21:46;12.2;10.1;7.3
72918;PMS7003;61063;55.700;26.994;2023-01-15T01:26:21;12.7;10.9;7.9
72918;PMS7003;61063;55.700;26.994;2023-01-15T01:31:21;13.1;11.6;8.5
72918;PMS7003;61063;55.700;26.994;2023-01-15T01:36:34;12.4;10.6;7.8
72918;PMS7003;61063;55.700;26.994;2023-01-15T01:41:09;14.4;11.9;8.7
72918;PMS7003;61063;55.700;26.994;2023-01-15T01:46:45;10.5;8.3;6.1
72918;PMS7003;61063;55.700;26.994;2023-01-15T01:51:55;13.4;11.8;8.5
72918;PMS7003;61063;55.700;26.994;2023-01-15T01:56:29;16;12.8;9.3
72918;PMS7003;61063;55.700;26.994;2023-01-15T02:01:55;16.4;13.4;9.5
72918;PMS7003;61063;55.700;26.994;2023-01-15T02:06:55;15.3;12.7;9
72918;PMS7003;61063;55.700;26.994;2023-01-15T02:11:33;16.8;13.9;9.6
72918;PMS7003;61063;55.700;26.994;2023-01-15T02:16:21;15.2;12.2;8.4
72918;PMS7003;61063;55.700;26.994;2023-01-15T02:21:57;15.1;12.3;9.1
72918;PMS7003;61063;55.700;26.994;2023-01-15T02:26:46;16.3;13.4;9.6
72918;PMS7003;61063;55.700;26.994;2023-01-15T02:31:10;15.1;11.9;8.6
72918;PMS7003;61063;55.700;26.994;2023-01-15T02:36:19;17.5;13.4;9.2
72918;PMS7003;61063;55.700;26.994;2023-01-15T02:41:47;14.2;12.1;8.6
72918;PMS7003;61063;55.700;26.994;2023-01-15T02:46:49;15.7;12.8;9
72918;PMS7003;61063;55.700;26.994;2023-01-15T02:51:35;14;10.9;7.5
72918;PMS7003;61063;55.700;26.994;2023-01-15T02:57:01;15;12.6;9.2
72918;PMS7003;61063;55.700;26.994;2023-01-15T03:01:59;14.7;11.9;9
72918;PMS7003;61063;55.700;26.994;2023-01-15T03:06:13;14.1;11.8;8.7
72918;PMS7003;61063;55.700;26.994;2023-01-15T03:11:12;15.7;12.9;9.4
72918;PMS7003;61063;55.700;26.994;2023-01-15T03:17:00;13.7;10.9;7.4
72918;PMS7003;61063;55.700;26.994;2023-01-15T03:21:12;15.4;12.5;8.8
72918;PMS7003;61063;55.700;26.994;2023-01-15T03:26:25;13.1;11.2;7.9
72918;PMS7003;61063;55.700;26.994;2023-01-15T03:31:25;14.3;11.9;8.7
72918;PMS7003;61063;55.700;26.994;2023-01-15T03:36:49;14.7;12.1;8.6
72918;PMS7003;61063;55.700;26.994;2023-01-15T03:41:54;15.8;12.6;9.7
72918;PMS7003;61063;55.700;26.994;2023-01-15T03:46:37;12.9;10.3;6.6
72918;PMS7003;61063;55.700;26.994;2023-01-15T03:52:00;17.8;13.9;9.5
72918;PMS7003;61063;55.700;26.994;2023-01-15T03:56:28;14.3;12.4;8.7
72918;PMS7003;61063;55.700;26.994;2023-01-15T04:01:51;14.9;11.6;8.1
72918;PMS7003;61063;55.700;26.994;2023-01-15T04:06:39;13.7;10.6;8
72918;PMS7003;61063;55.700;26.994;2023-01-15T04:12:01;11.5;9.4;7.2
72918;PMS7003;61063;55.700;26.994;2023-01-15T04:16:26;11.6;9.4;6.8
72918;PMS7003;61063;55.700;26.994;2023-01-15T04:21:25;10;7.6;5.7
72918;PMS7003;61063;55.700;26.994;2023-01-15T04:26:39;10.5;8.7;6.5
72918;PMS7003;61063;55.700;26.994;2023-01-15T04:31:37;10.1;8;5.9
72918;PMS7003;61063;55.700;26.994;2023-01-15T04:36:59;10.1;7.9;5.9
72918;PMS7003;61063;55.700;26.994;2023-01-15T04:41:09;8.2;6.6;5.3
72918;PMS7003;61063;55.700;26.994;2023-01-15T04:46:57;8.7;7.6;5.7
72918;PMS7003;61063;55.700;26.994;2023-01-15T04:51:11;8.4;6.4;4.7
72918;PMS7003;61063;55.700;26.994;2023-01-15T04:56:48;8.2;6.5;5.3
72918;PMS7003;61063;55.700;26.994;2023-01-15T05:01:31;7.2;5.8;4.2
72918;PMS7003;61063;55.700;26.994;2023-01-15T05:07:01;7.2;6;4.6
72918;PMS7003;61063;55.700;26.994;2023-01-15T05:11:21;7;5.5;4.6
72918;PMS7003;61063;55.700;26.994;2023-01-15T05:16:45;6.5;5;3.9
72918;PMS7003;61063;55.700;26.994;2023-01-15T05:21:45;6.4;4.8;3.8
72918;PMS7003;61063;55.700;26.994;2023-01-15T05:27:01;5.9;5.1;3.9
72918;PMS7003;61063;55.700;26.994;2023-01-15T05:31:59;6;4.5;3.5
72918;PMS7003;61063;55.700;26.994;2023-01-15T05:36:49;6;4.8;3.5
72918;PMS7003;61063;55.700;26.994;2023-01-15T05:41:57;5.3;4.4;3.4
72918;PMS7003;61063;55.700;26.994;2023-01-15T05:46:21;5.7;4.7;3.6
72918;PMS7003;61063;55.700;26.994;2023-01-15T05:51:47;4.9;3.6;3.1
72918;PMS7003;61063;55.700;26.994;2023-01-15T05:56:09;4.8;4.1;3.4
72918;PMS7003;61063;55.700;26.994;2023-01-15T06:01:49;4.6;3.8;2.9
72918;PMS7003;61063;55.700;26.994;2023-01-15T06:06:21;4.3;3.8;3.1
72918;PMS7003;61063;55.700;26.994;2023-01-15T06:11:57;5.7;4.5;3.6
72918;PMS7003;61063;55.700;26.994;2023-01-15T06:16:25;5.4;4.1;3.3
72918;PMS7003;61063;55.700;26.994;2023-01-15T06:22:01;5.2;4.5;3.5
72918;PMS7003;61063;55.700;26.994;2023-01-15T06:26:47;5.5;4.1;3.2
72918;PMS7003;61063;55.700;26.994;2023-01-15T06:31:10;6;3.8;3
72918;PMS7003;61063;55.700;26.994;2023-01-15T06:36:10;5.6;4.5;3.7
72918;PMS7003;61063;55.700;26.994;2023-01-15T06:41:57;4.9;3.9;3.2
72918;PMS7003;61063;55.700;26.994;2023-01-15T06:46:57;4.6;3.4;2.7
72918;PMS7003;61063;55.700;26.994;2023-01-15T06:51:09;4.4;3.3;2.8
72918;PMS7003;61063;55.700;26.994;2023-01-15T06:56:23;5.2;3.8;3
72918;PMS7003;61063;55.700;26.994;2023-01-15T07:01:37;4.4;3;2.4
72918;PMS7003;61063;55.700;26.994;2023-01-15T07:07:01;4.2;3.6;3
72918;PMS7003;61063;55.700;26.994;2023-01-15T07:11:39;2.9;2.1;1.7
72918;PMS7003;61063;55.700;26.994;2023-01-15T07:16:49;4.7;3.2;2.4
72918;PMS7003;61063;55.700;26.994;2023-01-15T07:21:47;4.1;2.7;2.2
72918;PMS7003;61063;55.700;26.994;2023-01-15T07:26:21;4;2.8;2.2
72918;PMS7003;61063;55.700;26.994;2023-01-15T07:31:23;4.8;3.1;2.5
72918;PMS7003;61063;55.700;26.994;2023-01-15T07:36:21;4.7;3.4;2.9
72918;PMS7003;61063;55.700;26.994;2023-01-15T07:41:57;4.2;3.1;2.5
72918;PMS7003;61063;55.700;26.994;2023-01-15T07:46:59;3.9;3.3;2.6
72918;PMS7003;61063;55.700;26.994;2023-01-15T07:51:33;4.2;3.2;2.6
72918;PMS7003;61063;55.700;26.994;2023-01-15T07:56:59;4.7;3.9;3.3
72918;PMS7003;61063;55.700;26.994;2023-01-15T08:01:45;5.5;3.6;2.9
72918;PMS7003;61063;55.700;26.994;2023-01-15T08:06:09;4.4;3.3;2.7
72918;PMS7003;61063;55.700;26.994;2023-01-15T08:11:17;5.2;4.1;3.2
72918;PMS7003;61063;55.700;26.994;2023-01-15T08:16:57;4.8;3.8;2.8
72918;PMS7003;61063;55.700;26.994;2023-01-15T08:21:23;3.9;3.1;2.6
72918;PMS7003;61063;55.700;26.994;2023-01-15T08:26:21;4.6;4.3;3.4
72918;PMS7003;61063;55.700;26.994;2023-01-15T08:31:23;4.8;3.8;3
72918;PMS7003;61063;55.700;26.994;2023-01-15T08:36:31;5.6;4;3.2
72918;PMS7003;61063;55.700;26.994;2023-01-15T08:41:37;4.6;3.6;2.9
72918;PMS7003;61063;55.700;26.994;2023-01-15T08:46:33;4.4;4;3.1
72918;PMS7003;61063;55.700;26.994;2023-01-15T08:51:59;4.6;3.2;2.6
72918;PMS7003;61063;55.700;26.994;2023-01-15T08:56:10;4.1;3.7;2.9
72918;PMS7003;61063;55.700;26.994;2023-01-15T09:01:51;4.4;3.4;2.7
72918;PMS7003;61063;55.700;26.994;2023-01-15T09:06:09;4.4;3.9;2.9
72918;PMS7003;61063;55.700;26.994;2023-01-15T09:11:49;5;3.8;3.1
72918;PMS7003;61063;55.700;26.994;2023-01-15T09:16:39;4.6;3.5;2.9
72918;PMS7003;61063;55.700;26.994;2023-01-15T09:21:21;4.8;3.9;3.1
72918;PMS7003;61063;55.700;26.994;2023-01-15T09:26:47;4.8;3.6;3
72918;PMS7003;61063;55.700;26.994;2023-01-15T09:31:47;5;3.9;3.2
72918;PMS7003;61063;55.700;26.994;2023-01-15T09:36:57;4;3.6;2.8
72918;PMS7003;61063;55.700;26.994;2023-01-15T09:41:10;4.8;3.7;3.1
72918;PMS7003;61063;55.700;26.994;2023-01-15T09:47:00;4.7;3.4;2.6
72918;PMS7003;61063;55.700;26.994;2023-01-15T09:51:36;4.3;3.5;3
72918;PMS7003;61063;55.700;26.994;2023-01-15T09:56:45;4.4;3.5;2.9
72918;PMS7003;61063;55.700;26.994;2023-01-15T10:01:11;4.7;4;3.1
72918;PMS7003;61063;55.700;26.994;2023-01-15T10:06:53;4.5;3.7;3.1
72918;PMS7003;61063;55.700;26.994;2023-01-15T10:11:27;4.8;4;3.2
72918;PMS7003;61063;55.700;26.994;2023-01-15T10:16:45;4.9;4;3.2
72918;PMS7003;61063;55.700;26.994;2023-01-15T10:21:48;4.8;3.8;3
72918;PMS7003;61063;55.700;26.994;2023-01-15T10:26:59;5;4;3.3
72918;PMS7003;61063;55.700;26.994;2023-01-15T10:31:59;4.4;3.4;2.7
72918;PMS7003;61063;55.700;26.994;2023-01-15T10:36:23;4.6;3.8;2.9
72918;PMS7003;61063;55.700;26.994;2023-01-15T10:41:59;4;3.3;2.6
72918;PMS7003;61063;55.700;26.994;2023-01-15T10:46:24;4.7;3.7;3.1
72918;PMS7003;61063;55.700;26.994;2023-01-15T10:51:45;5.2;3.6;2.9
72918;PMS7003;61063;55.700;26.994;2023-01-15T10:56:25;5.5;4.1;3.2
72918;PMS7003;61063;55.700;26.994;2023-01-15T11:01:51;5.9;4.7;3.5
72918;PMS7003;61063;55.700;26.994;2023-01-15T11:06:37;4.5;4.2;3.5
72918;PMS7003;61063;55.700;26.994;2023-01-15T11:12:04;4.6;3.9;3
72918;PMS7003;61063;55.700;26.994;2023-01-15T11:16:37;5.1;4.3;3.5
72918;PMS7003;61063;55.700;26.994;2023-01-15T11:21:59;5.4;4.8;3.6
72918;PMS7003;61063;55.700;26.994;2023-01-15T11:26:47;4.4;3.3;2.8
72918;PMS7003;61063;55.700;26.994;2023-01-15T11:31:34;5.5;4.3;3.3
72918;PMS7003;61063;55.700;26.994;2023-01-15T11:36:37;4.3;3.7;3.1
72918;PMS7003;61063;55.700;26.994;2023-01-15T11:41:31;4.8;4.2;3.2
72918;PMS7003;61063;55.700;26.994;2023-01-15T11:46:49;4.1;3.5;2.8
72918;PMS7003;61063;55.700;26.994;2023-01-15T11:51:09;5.1;4.1;3.4
72918;PMS7003;61063;55.700;26.994;2023-01-15T11:56:53;4.8;3.7;3.1
72918;PMS7003;61063;55.700;26.994;2023-01-15T12:01:38;3.8;3.3;2.5
72918;PMS7003;61063;55.700;26.994;2023-01-15T12:07:01;4.9;3.5;2.8
72918;PMS7003;61063;55.700;26.994;2023-01-15T12:11:39;4.6;3.6;3
72918;PMS7003;61063;55.700;26.994;2023-01-15T12:17:01;4;3.5;2.9
72918;PMS7003;61063;55.700;26.994;2023-01-15T12:22:23;4.7;3.8;3
72918;PMS7003;61063;55.700;26.994;2023-01-15T12:26:27;5.1;3.7;3.1
72918;PMS7003;61063;55.700;26.994;2023-01-15T12:31:11;5.2;4.1;3.4
72918;PMS7003;61063;55.700;26.994;2023-01-15T12:36:13;5;4;3.1
72918;PMS7003;61063;55.700;26.994;2023-01-15T12:41:36;4.6;3.6;2.8
72918;PMS7003;61063;55.700;26.994;2023-01-15T12:47:02;5.6;4.4;3.5
72918;PMS7003;61063;55.700;26.994;2023-01-15T12:51:12;4.8;4.2;3.4
72918;PMS7003;61063;55.700;26.994;2023-01-15T12:56:23;6;4.3;3.5
72918;PMS7003;61063;55.700;26.994;2023-01-15T13:01:58;5.9;4.5;3.7
72918;PMS7003;61063;55.700;26.994;2023-01-15T13:06:23;6.4;4.9;3.9
72918;PMS7003;61063;55.700;26.994;2023-01-15T13:11:47;5.1;3.8;3
72918;PMS7003;61063;55.700;26.994;2023-01-15T13:16:37;5.2;4.6;3.8
72918;PMS7003;61063;55.700;26.994;2023-01-15T13:21:47;5.6;4.6;3.8
72918;PMS7003;61063;55.700;26.994;2023-01-15T13:26:14;5.6;4.3;3.3
72918;PMS7003;61063;55.700;26.994;2023-01-15T13:31:41;6;5;4.1
72918;PMS7003;61063;55.700;26.994;2023-01-15T13:37:01;6.4;5.4;4.2
72918;PMS7003;61063;55.700;26.994;2023-01-15T13:42:01;7.3;5.7;4.2
72918;PMS7003;61063;55.700;26.994;2023-01-15T13:46:33;6.2;5.2;4.1
72918;PMS7003;61063;55.700;26.994;2023-01-15T13:51:59;5.8;4.4;3.3
72918;PMS7003;61063;55.700;26.994;2023-01-15T13:56:47;6.9;5.8;4.5
72918;PMS7003;61063;55.700;26.994;2023-01-15T14:01:30;6.3;5.1;3.9
72918;PMS7003;61063;55.700;26.994;2023-01-15T14:06:11;7.7;5.9;4.7
72918;PMS7003;61063;55.700;26.994;2023-01-15T14:12:03;6.8;5.8;4.5
72918;PMS7003;61063;55.700;26.994;2023-01-15T14:16:13;6.6;5.6;4.3
72918;PMS7003;61063;55.700;26.994;2023-01-15T14:21:16;7.1;5.8;4.5
72918;PMS7003;61063;55.700;26.994;2023-01-15T14:26:10;7.1;5.6;4.5
72918;PMS7003;61063;55.700;26.994;2023-01-15T14:31:50;5.9;5.2;4
72918;PMS7003;61063;55.700;26.994;2023-01-15T14:36:53;6.7;5.7;4.5
72918;PMS7003;61063;55.700;26.994;2023-01-15T14:41:34;5.6;4.8;3.9
72918;PMS7003;61063;55.700;26.994;2023-01-15T14:47:00;7.8;6.2;4.7
72918;PMS7003;61063;55.700;26.994;2023-01-15T14:51:33;7.7;5.3;4.4
72918;PMS7003;61063;55.700;26.994;2023-01-15T14:56:40;7.7;5.7;4.5
72918;PMS7003;61063;55.700;26.994;2023-01-15T15:01:12;6.2;4.9;3.8
72918;PMS7003;61063;55.700;26.994;2023-01-15T15:06:52;5.9;4.8;3.6
72918;PMS7003;61063;55.700;26.994;2023-01-15T15:11:47;5.8;3.9;3
72918;PMS7003;61063;55.700;26.994;2023-01-15T15:16:12;5.7;5.3;3.9
72918;PMS7003;61063;55.700;26.994;2023-01-15T15:22:02;5.7;5.3;4.3
72918;PMS7003;61063;55.700;26.994;2023-01-15T15:26:49;6.3;5.3;4.4
72918;PMS7003;61063;55.700;26.994;2023-01-15T15:31:59;5.7;4.8;3.6
72918;PMS7003;61063;55.700;26.994;2023-01-15T15:36:11;6.1;4.7;3.8
72918;PMS7003;61063;55.700;26.994;2023-01-15T15:42:01;5.5;3.6;3.1
72918;PMS7003;61063;55.700;26.994;2023-01-15T15:46:26;6;4.3;3.5
72918;PMS7003;61063;55.700;26.994;2023-01-15T15:51:48;5.5;4.2;3.1
72918;PMS7003;61063;55.700;26.994;2023-01-15T15:56:33;5.5;4.3;3.4
72918;PMS7003;61063;55.700;26.994;2023-01-15T16:01:53;4.8;3.9;3.1
72918;PMS7003;61063;55.700;26.994;2023-01-15T16:06:25;4.5;3.5;2.8
72918;PMS7003;61063;55.700;26.994;2023-01-15T16:11:45;5.4;4.2;3.3
72918;PMS7003;61063;55.700;26.994;2023-01-15T16:16:45;4.8;3.1;2.5
72918;PMS7003;61063;55.700;26.994;2023-01-15T16:22:01;4.8;3.6;2.7
72918;PMS7003;61063;55.700;26.994;2023-01-15T16:27:02;5.5;4.1;3.1
72918;PMS7003;61063;55.700;26.994;2023-01-15T16:31:19;4;3.1;2.7
72918;PMS7003;61063;55.700;26.994;2023-01-15T16:37:01;4.8;3.6;2.8
72918;PMS7003;61063;55.700;26.994;2023-01-15T16:41:15;4.3;3.6;2.7
72918;PMS7003;61063;55.700;26.994;2023-01-15T16:46:59;4.4;3.7;2.8
72918;PMS7003;61063;55.700;26.994;2023-01-15T16:51:40;4.1;3.6;2.7
72918;PMS7003;61063;55.700;26.994;2023-01-15T16:56:49;4;3.4;2.8
72918;PMS7003;61063;55.700;26.994;2023-01-15T17:01:43;4.1;3;2.5
72918;PMS7003;61063;55.700;26.994;2023-01-15T17:06:53;3.5;2.6;2.1
72918;PMS7003;61063;55.700;26.994;2023-01-15T17:11:48;4;3.3;2.6
72918;PMS7003;61063;55.700;26.994;2023-01-15T17:17:15;3.8;2.8;2.4
72918;PMS7003;61063;55.700;26.994;2023-01-15T17:21:57;4.1;3;2.3
72918;PMS7003;61063;55.700;26.994;2023-01-15T17:26:35;3.7;2.7;2.1
72918;PMS7003;61063;55.700;26.994;2023-01-15T17:31:59;3.6;2.7;2.1
72918;PMS7003;61063;55.700;26.994;2023-01-15T17:36:11;4.3;3.2;2.4
72918;PMS7003;61063;55.700;26.994;2023-01-15T17:41:49;4.1;2.8;2.2
72918;PMS7003;61063;55.700;26.994;2023-01-15T17:46:11;3.6;2.8;2.2
72918;PMS7003;61063;55.700;26.994;2023-01-15T17:51:51;3.2;2.6;2.1
72918;PMS7003;61063;55.700;26.994;2023-01-15T17:56:39;4.4;3.3;2.5
72918;PMS7003;61063;55.700;26.994;2023-01-15T18:01:59;2.9;2.5;1.6
72918;PMS7003;61063;55.700;26.994;2023-01-15T18:06:12;4.2;3.2;2.4
72918;PMS7003;61063;55.700;26.994;2023-01-15T18:11:59;3.9;3.2;2.4
72918;PMS7003;61063;55.700;26.994;2023-01-15T18:16:45;4.2;3.3;2.5
72918;PMS7003;61063;55.700;26.994;2023-01-15T18:21:11;4;3.3;2.6
72918;PMS7003;61063;55.700;26.994;2023-01-15T18:26:38;3.8;3;2.5
72918;PMS7003;61063;55.700;26.994;2023-01-15T18:31:37;4.9;3.3;2.7
72918;PMS7003;61063;55.700;26.994;2023-01-15T18:36:47;4;3.1;2.5
72918;PMS7003;61063;55.700;26.994;2023-01-15T18:41:13;4.3;3;2.3
72918;PMS7003;61063;55.700;26.994;2023-01-15T18:46:11;3.6;3.1;2.5
72918;PMS7003;61063;55.700;26.994;2023-01-15T18:51:49;3.7;3;2.3
72918;PMS7003;61063;55.700;26.994;2023-01-15T18:57:01;3.4;2.4;2.1
72918;PMS7003;61063;55.700;26.994;2023-01-15T19:01:37;3.6;3.1;2.5
72918;PMS7003;61063;55.700;26.994;2023-01-15T19:06:47;2.9;2.5;2
72918;PMS7003;61063;55.700;26.994;2023-01-15T19:11:25;4.1;3.3;2.7
72918;PMS7003;61063;55.700;26.994;2023-01-15T19:16:11;4;2.7;2.1
72918;PMS7003;61063;55.700;26.994;2023-01-15T19:21:37;3.6;2.7;2.2
72918;PMS7003;61063;55.700;26.994;2023-01-15T19:26:59;3.4;2.7;2
72918;PMS7003;61063;55.700;26.994;2023-01-15T19:31:57;3.5;2.9;2.1
72918;PMS7003;61063;55.700;26.994;2023-01-15T19:36:59;3.7;3.5;2.6
72918;PMS7003;61063;55.700;26.994;2023-01-15T19:41:33;4;3.1;2.3
72918;PMS7003;61063;55.700;26.994;2023-01-15T19:46:59;3.1;2.8;2.5
72918;PMS7003;61063;55.700;26.994;2023-01-15T19:51:59;4.6;3.4;2.7
72918;PMS7003;61063;55.700;26.994;2023-01-15T19:56:37;4.7;3.4;2.8
72918;PMS7003;61063;55.700;26.994;2023-01-15T20:01:33;4.9;4;3
72918;PMS7003;61063;55.700;26.994;2023-01-15T20:06:59;4.2;3.4;2.9
72918;PMS7003;61063;55.700;26.994;2023-01-15T20:11:23;5.2;4.1;3
72918;PMS7003;61063;55.700;26.994;2023-01-15T20:16:12;4.8;4;3.1
72918;PMS7003;61063;55.700;26.994;2023-01-15T20:21:09;4.9;3.9;3.2
72918;PMS7003;61063;55.700;26.994;2023-01-15T20:26:47;4.4;3.4;2.7
72918;PMS7003;61063;55.700;26.994;2023-01-15T20:31:51;4.2;3;2.5
72918;PMS7003;61063;55.700;26.994;2023-01-15T20:36:45;4.4;3.3;2.7
72918;PMS7003;61063;55.700;26.994;2023-01-15T20:41:59;3.9;3.6;2.9
72918;PMS7003;61063;55.700;26.994;2023-01-15T20:46:39;5.3;4.1;3.2
72918;PMS7003;61063;55.700;26.994;2023-01-15T20:51:51;5.3;4.1;3.3
72918;PMS7003;61063;55.700;26.994;2023-01-15T20:56:23;4.7;4.1;3.1
72918;PMS7003;61063;55.700;26.994;2023-01-15T21:01:49;5.7;4.1;3
72918;PMS7003;61063;55.700;26.994;2023-01-15T21:06:23;4.9;3.8;2.9
72918;PMS7003;61063;55.700;26.994;2023-01-15T21:11:47;4.8;4;3.3
72918;PMS7003;61063;55.700;26.994;2023-01-15T21:16:25;4.5;3.6;3
72918;PMS7003;61063;55.700;26.994;2023-01-15T21:21:47;5.2;3.7;2.7
72918;PMS7003;61063;55.700;26.994;2023-01-15T21:26:49;4.7;3.7;2.8
72918;PMS7003;61063;55.700;26.994;2023-01-15T21:31:31;4.4;3.6;2.8
72918;PMS7003;61063;55.700;26.994;2023-01-15T21:36:57;5.6;4.1;3.3
72918;PMS7003;61063;55.700;26.994;2023-01-15T21:41:31;6.1;4;3
72918;PMS7003;61063;55.700;26.994;2023-01-15T21:46:57;5.2;3.9;3.3
72918;PMS7003;61063;55.700;26.994;2023-01-15T21:51:39;5.4;4;3.1
72918;PMS7003;61063;55.700;26.994;2023-01-15T21:56:49;4.4;3.7;2.9
72918;PMS7003;61063;55.700;26.994;2023-01-15T22:01:23;4.7;3.2;2.7
72918;PMS7003;61063;55.700;26.994;2023-01-15T22:06:35;3.7;3.3;2.5
72918;PMS7003;61063;55.700;26.994;2023-01-15T22:11:11;5;3.7;2.9
72918;PMS7003;61063;55.700;26.994;2023-01-15T22:16:45;4.1;3;2.4
72918;PMS7003;61063;55.700;26.994;2023-01-15T22:21:59;4.2;3.4;2.6
72918;PMS7003;61063;55.700;26.994;2023-01-15T22:26:43;3.6;2.9;2.3
72918;PMS7003;61063;55.700;26.994;2023-01-15T22:31:59;4.3;3;2.3
72918;PMS7003;61063;55.700;26.994;2023-01-15T22:36:11;3.6;2.4;2
72918;PMS7003;61063;55.700;26.994;2023-01-15T22:41:57;3.3;2.3;1.9
72918;PMS7003;61063;55.700;26.994;2023-01-15T22:46:12;3.8;2.9;2.3
72918;PMS7003;61063;55.700;26.994;2023-01-15T22:51:51;3;2.6;2.1
72918;PMS7003;61063;55.700;26.994;2023-01-15T22:56:11;4;2.8;2.2
72918;PMS7003;61063;55.700;26.994;2023-01-15T23:01:57;3.3;2.4;2.1
72918;PMS7003;61063;55.700;26.994;2023-01-15T23:06:45;2.9;2.3;1.9
72918;PMS7003;61063;55.700;26.994;2023-01-15T23:11:53;3.5;2.9;2.2
72918;PMS7003;61063;55.700;26.994;2023-01-15T23:16:39;3.1;2.6;2
72918;PMS7003;61063;55.700;26.994;2023-01-15T23:21:43;3.2;2.4;1.9
72918;PMS7003;61063;55.700;26.994;2023-01-15T23:26:53;3;1.5;1.3
72918;PMS7003;61063;55.700;26.994;2023-01-15T23:31:11;2.9;2;1.6
72918;PMS7003;61063;55.700;26.994;2023-01-15T23:36:41;2.8;2.2;1.7
72918;PMS7003;61063;55.700;26.994;2023-01-15T23:41:23;2.6;2.1;1.6
72918;PMS7003;61063;55.700;26.994;2023-01-15T23:46:45;2.4;1.9;1.4
72918;PMS7003;61063;55.700;26.994;2023-01-15T23:51:23;2.6;1.9;1.5
72918;PMS7003;61063;55.700;26.994;2023-01-15T23:56:53;2;1.7;1.5
